createdAt,value
2019-05-05T00:01:22.319Z,99.90
2019-05-05T00:04:01.685Z,99.90
2019-05-05T00:06:29.630Z,99.90
2019-05-05T00:08:57.608Z,99.90
2019-05-05T00:11:38.859Z,99.90
2019-05-05T00:14:16.395Z,99.90
2019-05-05T00:16:49.651Z,99.90
2019-05-05T00:19:29.761Z,99.90
2019-05-05T00:21:47.717Z,99.90
2019-05-05T00:24:15.664Z,99.90
2019-05-05T00:26:45.913Z,99.90
2019-05-05T00:29:14.845Z,99.90
2019-05-05T00:31:45.266Z,99.90
2019-05-05T00:34:12.582Z,99.90
2019-05-05T00:36:40.494Z,99.90
2019-05-05T00:39:08.487Z,99.90
2019-05-05T00:41:36.429Z,99.90
2019-05-05T00:44:04.861Z,99.90
2019-05-05T00:47:07.058Z,99.90
2019-05-05T00:49:45.518Z,99.90
2019-05-05T00:52:05.779Z,99.90
2019-05-05T00:54:34.689Z,99.90
2019-05-05T00:57:04.464Z,99.90
2019-05-05T00:59:34.603Z,99.90
2019-05-05T01:02:21.743Z,99.90
2019-05-05T01:04:59.283Z,99.90
2019-05-05T01:07:27.232Z,99.90
2019-05-05T01:09:55.308Z,99.90
2019-05-05T01:12:24.355Z,99.90
2019-05-05T01:14:52.631Z,99.90
2019-05-05T01:17:20.583Z,99.90
2019-05-05T01:20:00.299Z,99.90
2019-05-05T01:22:18.102Z,99.90
2019-05-05T01:24:46.092Z,99.90
2019-05-05T01:27:14.770Z,99.90
2019-05-05T01:29:45.062Z,99.90
2019-05-05T01:32:16.892Z,99.90
2019-05-05T01:34:45.848Z,99.90
2019-05-05T01:37:20.223Z,99.90
2019-05-05T01:39:54.735Z,99.90
2019-05-05T01:45:25.922Z,99.90
2019-05-05T01:47:54.555Z,99.90
2019-05-05T01:50:24.654Z,99.90
2019-05-05T01:52:52.375Z,99.90
2019-05-05T01:55:20.286Z,99.90
2019-05-05T01:57:48.227Z,99.90
2019-05-05T02:00:16.175Z,99.90
2019-05-05T02:02:44.828Z,99.90
2019-05-05T02:05:14.754Z,99.90
2019-05-05T02:07:44.880Z,99.90
2019-05-05T02:10:15.041Z,99.90
2019-05-05T02:12:44.151Z,99.90
2019-05-05T02:15:12.031Z,99.90
2019-05-05T02:17:40.012Z,99.90
2019-05-05T02:20:07.978Z,99.90
2019-05-05T02:22:35.980Z,99.90
2019-05-05T02:25:04.314Z,99.90
2019-05-05T02:27:34.230Z,99.90
2019-05-05T02:30:20.110Z,99.90
2019-05-05T02:32:51.017Z,99.90
2019-05-05T02:35:18.886Z,99.90
2019-05-05T02:37:46.961Z,99.90
2019-05-05T02:40:15.945Z,99.90
2019-05-05T02:42:45.579Z,99.90
2019-05-05T02:45:17.641Z,99.90
2019-05-05T02:48:08.623Z,99.90
2019-05-05T02:51:00.760Z,99.90
2019-05-05T02:53:24.730Z,99.90
2019-05-05T02:55:53.419Z,99.90
2019-05-05T02:58:21.523Z,99.90
2019-05-05T03:01:14.598Z,99.90
2019-05-05T03:03:43.823Z,99.90
2019-05-05T03:06:11.951Z,99.90
2019-05-05T03:08:39.871Z,99.90
2019-05-05T03:11:07.772Z,99.90
2019-05-05T03:13:35.665Z,99.90
2019-05-05T03:16:03.843Z,99.90
2019-05-05T03:18:33.730Z,99.90
2019-05-05T03:21:05.209Z,99.90
2019-05-05T03:23:33.365Z,99.90
2019-05-05T03:26:00.951Z,99.90
2019-05-05T03:28:40.308Z,99.90
2019-05-05T03:33:45.851Z,99.90
2019-05-05T03:36:18.228Z,99.90
2019-05-05T03:38:46.115Z,99.90
2019-05-05T03:41:34.447Z,99.90
2019-05-05T03:44:20.379Z,99.90
2019-05-05T03:46:48.353Z,99.90
2019-05-05T03:49:16.363Z,99.90
2019-05-05T03:51:44.428Z,99.90
2019-05-05T03:54:14.455Z,99.90
2019-05-05T03:56:43.982Z,99.90
2019-05-05T03:59:13.863Z,99.90
2019-05-05T04:02:06.416Z,99.90
2019-05-05T04:04:39.580Z,99.90
2019-05-05T04:07:07.475Z,99.90
2019-05-05T04:09:35.339Z,99.90
2019-05-05T04:12:04.436Z,99.90
2019-05-05T04:14:34.586Z,99.90
2019-05-05T04:17:20.748Z,99.90
2019-05-05T04:19:51.267Z,99.90
2019-05-05T04:22:19.128Z,99.90
2019-05-05T04:24:47.117Z,99.90
2019-05-05T04:27:15.089Z,99.90
2019-05-05T04:29:43.945Z,99.90
2019-05-05T04:32:14.014Z,99.90
2019-05-05T04:34:43.830Z,99.90
2019-05-05T04:37:11.537Z,99.90
2019-05-05T04:39:39.518Z,99.90
2019-05-05T04:42:07.525Z,99.90
2019-05-05T04:44:35.589Z,99.90
2019-05-05T04:47:09.692Z,99.90
2019-05-05T04:49:46.479Z,99.90
2019-05-05T04:52:15.390Z,99.90
2019-05-05T04:54:55.489Z,99.90
2019-05-05T04:57:24.022Z,99.90
2019-05-05T04:59:54.006Z,99.90
2019-05-05T05:02:43.478Z,99.90
2019-05-05T05:05:18.186Z,99.90
2019-05-05T05:07:45.494Z,99.90
2019-05-05T05:10:13.963Z,99.90
2019-05-05T05:12:43.577Z,99.90
2019-05-05T05:15:11.756Z,99.90
2019-05-05T05:17:48.729Z,99.90
2019-05-05T05:20:16.728Z,99.90
2019-05-05T05:22:44.668Z,99.90
2019-05-05T05:25:13.617Z,99.90
2019-05-05T05:27:41.724Z,99.90
2019-05-05T05:30:09.692Z,99.90
2019-05-05T05:32:39.817Z,99.90
2019-05-05T05:35:07.304Z,99.90
2019-05-05T05:37:35.199Z,99.90
2019-05-05T05:40:14.701Z,99.90
2019-05-05T05:42:43.965Z,99.90
2019-05-05T05:45:28.457Z,99.90
2019-05-05T05:48:15.416Z,99.90
2019-05-05T05:50:48.018Z,99.90
2019-05-05T05:53:15.919Z,99.90
2019-05-05T05:55:44.755Z,99.90
2019-05-05T05:58:14.115Z,99.90
2019-05-05T06:00:44.080Z,99.90
2019-05-05T06:03:13.916Z,99.90
2019-05-05T06:05:43.426Z,99.90
2019-05-05T06:08:11.295Z,99.90
2019-05-05T06:10:39.199Z,99.90
2019-05-05T06:13:07.121Z,99.90
2019-05-05T06:15:35.081Z,99.90
2019-05-05T06:18:04.648Z,99.90
2019-05-05T06:20:34.419Z,99.90
2019-05-05T06:23:04.107Z,99.90
2019-05-05T06:25:34.133Z,99.90
2019-05-05T06:28:14.563Z,99.90
2019-05-05T06:30:40.914Z,99.90
2019-05-05T06:33:08.896Z,99.90
2019-05-05T06:35:36.849Z,99.90
2019-05-05T06:38:04.871Z,99.90
2019-05-05T06:40:44.791Z,99.90
2019-05-05T06:43:30.434Z,99.90
2019-05-05T06:45:59.148Z,99.90
2019-05-05T06:48:26.526Z,99.90
2019-05-05T06:50:54.538Z,99.90
2019-05-05T06:53:23.897Z,99.90
2019-05-05T06:55:54.139Z,99.90
2019-05-05T06:58:21.710Z,99.90
2019-05-05T07:00:49.621Z,99.90
2019-05-05T07:03:17.598Z,99.90
2019-05-05T07:05:45.490Z,99.90
2019-05-05T07:08:13.764Z,99.90
2019-05-05T07:10:44.268Z,99.90
2019-05-05T07:13:13.845Z,99.90
2019-05-05T07:15:43.590Z,99.90
2019-05-05T07:18:11.146Z,99.90
2019-05-05T07:20:39.108Z,99.90
2019-05-05T07:23:07.092Z,99.90
2019-05-05T07:25:42.710Z,99.90
2019-05-05T07:28:04.859Z,99.90
2019-05-05T07:30:33.602Z,99.90
2019-05-05T07:33:01.678Z,99.90
2019-05-05T07:35:56.703Z,99.90
2019-05-05T07:38:18.330Z,99.90
2019-05-05T07:40:46.360Z,99.90
2019-05-05T07:43:14.710Z,99.90
2019-05-05T07:45:44.605Z,99.90
2019-05-05T07:48:13.818Z,99.90
2019-05-05T07:50:45.041Z,99.90
2019-05-05T07:53:15.050Z,99.90
2019-05-05T07:55:43.576Z,99.90
2019-05-05T07:58:11.028Z,99.90
2019-05-05T08:00:38.975Z,99.90
2019-05-05T08:03:06.919Z,99.90
2019-05-05T08:05:36.416Z,99.90
2019-05-05T08:08:04.665Z,99.90
2019-05-05T08:10:34.385Z,99.90
2019-05-05T08:13:04.465Z,99.90
2019-05-05T08:15:34.143Z,99.90
2019-05-05T08:18:19.611Z,99.90
2019-05-05T08:20:50.217Z,99.70
2019-05-05T08:23:53.884Z,99.40
2019-05-05T08:26:29.433Z,98.50
2019-05-05T08:29:04.646Z,99.50
2019-05-05T08:32:06.201Z,98.60
2019-05-05T08:34:34.013Z,99.90
2019-05-05T08:37:03.801Z,97.50
2019-05-05T08:39:34.331Z,96.00
2019-05-05T08:42:04.108Z,96.40
2019-05-05T08:44:31.320Z,94.80
2019-05-05T08:46:59.370Z,95.80
2019-05-05T08:49:27.482Z,96.20
2019-05-05T08:51:55.606Z,95.60
2019-05-05T08:54:23.684Z,97.70
2019-05-05T08:56:51.861Z,97.50
2019-05-05T08:59:19.850Z,97.00
2019-05-05T09:01:47.851Z,97.50
2019-05-05T09:04:15.862Z,98.20
2019-05-05T09:06:43.955Z,98.60
2019-05-05T09:09:11.866Z,98.80
2019-05-05T09:11:39.908Z,99.90
2019-05-05T09:14:08.002Z,99.90
2019-05-05T09:16:55.174Z,99.90
2019-05-05T09:19:24.022Z,99.70
2019-05-05T09:21:54.173Z,99.60
2019-05-05T09:24:36.729Z,97.70
2019-05-05T09:27:24.840Z,98.50
2019-05-05T09:29:54.337Z,98.40
2019-05-05T09:32:24.371Z,98.60
2019-05-05T09:34:54.074Z,99.70
2019-05-05T09:37:24.565Z,98.30
2019-05-05T09:39:54.067Z,98.00
2019-05-05T09:42:23.636Z,97.20
2019-05-05T09:44:54.189Z,95.30
2019-05-05T09:47:24.027Z,96.00
2019-05-05T09:49:52.312Z,97.10
2019-05-05T09:52:20.302Z,99.30
2019-05-05T09:54:48.271Z,99.90
2019-05-05T09:57:16.265Z,99.90
2019-05-05T09:59:44.433Z,99.90
2019-05-05T10:02:12.574Z,99.90
2019-05-05T10:04:40.638Z,99.90
2019-05-05T10:07:13.725Z,99.90
2019-05-05T10:09:40.689Z,99.90
2019-05-05T10:12:08.732Z,99.90
2019-05-05T10:14:36.899Z,99.90
2019-05-05T10:17:05.150Z,99.90
2019-05-05T10:19:33.545Z,99.90
2019-05-05T10:22:01.536Z,99.90
2019-05-05T10:24:57.732Z,99.90
2019-05-05T10:27:25.880Z,99.90
2019-05-05T10:29:54.765Z,99.90
2019-05-05T10:32:24.494Z,99.90
2019-05-05T10:35:04.551Z,99.90
2019-05-05T10:37:34.588Z,99.90
2019-05-05T10:40:03.629Z,99.90
2019-05-05T10:42:50.137Z,99.90
2019-05-05T10:45:18.338Z,99.90
2019-05-05T10:47:46.297Z,99.90
2019-05-05T10:50:14.302Z,99.90
2019-05-05T10:52:44.173Z,99.90
2019-05-05T10:55:12.051Z,99.90
2019-05-05T10:57:43.597Z,99.90
2019-05-05T11:00:13.202Z,99.90
2019-05-05T11:02:41.665Z,98.90
2019-05-05T11:05:09.765Z,97.90
2019-05-05T11:07:37.981Z,98.20
2019-05-05T11:10:05.968Z,96.70
2019-05-05T11:12:34.206Z,96.50
2019-05-05T11:15:04.088Z,97.20
2019-05-05T11:17:32.051Z,97.60
2019-05-05T11:20:00.217Z,98.10
2019-05-05T11:22:28.378Z,97.70
2019-05-05T11:25:00.811Z,93.80
2019-05-05T11:27:26.256Z,93.80
2019-05-05T11:30:14.143Z,94.30
2019-05-05T11:33:16.029Z,94.10
2019-05-05T11:36:06.824Z,91.90
2019-05-05T11:38:34.913Z,92.60
2019-05-05T11:41:04.806Z,91.80
2019-05-05T11:43:33.771Z,91.50
2019-05-05T11:46:01.923Z,91.30
2019-05-05T11:48:30.055Z,90.50
2019-05-05T11:50:58.176Z,91.10
2019-05-05T11:53:26.274Z,91.20
2019-05-05T11:55:55.102Z,91.60
2019-05-05T11:58:24.832Z,86.20
2019-05-05T12:00:54.506Z,74.80
2019-05-05T12:03:23.008Z,79.40
2019-05-05T12:05:51.116Z,78.20
2019-05-05T12:08:19.170Z,75.40
2019-05-05T12:11:07.177Z,77.60
2019-05-05T12:13:35.244Z,71.00
2019-05-05T12:16:05.649Z,73.30
2019-05-05T12:18:34.250Z,73.00
2019-05-05T12:21:04.855Z,78.70
2019-05-05T12:23:34.064Z,70.30
2019-05-05T12:26:24.412Z,71.00
2019-05-05T12:28:58.251Z,70.90
2019-05-05T12:31:27.944Z,68.80
2019-05-05T12:33:55.951Z,74.80
2019-05-05T12:36:23.937Z,66.70
2019-05-05T12:38:54.424Z,69.40
2019-05-05T12:41:23.884Z,66.00
2019-05-05T12:43:54.570Z,63.00
2019-05-05T12:46:38.253Z,66.50
2019-05-05T12:49:07.125Z,62.10
2019-05-05T12:51:35.123Z,62.30
2019-05-05T12:54:04.520Z,63.90
2019-05-05T12:56:34.006Z,63.10
2019-05-05T12:59:04.446Z,62.60
2019-05-05T13:01:37.657Z,58.40
2019-05-05T13:04:05.752Z,62.40
2019-05-05T13:06:37.204Z,60.40
2019-05-05T13:09:05.535Z,62.70
2019-05-05T13:11:34.342Z,62.40
2019-05-05T13:14:03.711Z,65.00
2019-05-05T13:16:32.065Z,64.40
2019-05-05T13:19:01.001Z,60.80
2019-05-05T13:21:46.873Z,61.80
2019-05-05T13:24:34.401Z,61.00
2019-05-05T13:27:09.906Z,58.10
2019-05-05T13:29:35.702Z,58.10
2019-05-05T13:32:03.765Z,59.20
2019-05-05T13:34:31.780Z,56.80
2019-05-05T13:36:59.761Z,57.90
2019-05-05T13:39:27.685Z,60.40
2019-05-05T13:41:55.676Z,60.60
2019-05-05T13:44:41.183Z,59.80
2019-05-05T13:47:08.906Z,60.10
2019-05-05T13:49:39.718Z,63.00
2019-05-05T13:52:07.683Z,61.60
2019-05-05T13:54:35.744Z,63.30
2019-05-05T13:57:03.982Z,65.20
2019-05-05T13:59:33.988Z,68.40
2019-05-05T14:02:01.811Z,66.00
2019-05-05T14:04:29.903Z,66.40
2019-05-05T14:06:57.922Z,65.80
2019-05-05T14:09:25.966Z,66.40
2019-05-05T14:11:54.182Z,61.70
2019-05-05T14:14:24.129Z,63.60
2019-05-05T14:16:53.778Z,62.40
2019-05-05T14:19:21.668Z,62.80
2019-05-05T14:21:49.807Z,63.30
2019-05-05T14:24:25.238Z,61.50
2019-05-05T14:26:54.266Z,58.80
2019-05-05T14:29:53.198Z,57.80
2019-05-05T14:32:23.870Z,57.40
2019-05-05T14:35:07.799Z,56.50
2019-05-05T14:37:41.987Z,56.50
2019-05-05T14:40:10.071Z,54.80
2019-05-05T14:42:57.106Z,58.00
2019-05-05T14:45:25.411Z,59.00
2019-05-05T14:47:53.656Z,60.20
2019-05-05T14:50:24.013Z,63.50
2019-05-05T14:52:53.358Z,64.50
2019-05-05T14:55:22.460Z,66.60
2019-05-05T14:57:50.666Z,64.20
2019-05-05T15:00:21.776Z,65.70
2019-05-05T15:02:49.849Z,68.30
2019-05-05T15:05:35.593Z,69.40
2019-05-05T15:08:33.359Z,62.90
2019-05-05T15:11:20.013Z,60.30
2019-05-05T15:13:47.990Z,56.90
2019-05-05T15:16:15.943Z,56.90
2019-05-05T15:18:43.981Z,58.00
2019-05-05T15:21:11.937Z,58.90
2019-05-05T15:23:39.893Z,57.90
2019-05-05T15:26:08.155Z,56.90
2019-05-05T15:28:36.318Z,56.10
2019-05-05T15:31:05.407Z,58.00
2019-05-05T15:33:33.656Z,56.30
2019-05-05T15:36:04.853Z,56.20
2019-05-05T15:38:34.736Z,55.30
2019-05-05T15:41:03.974Z,55.00
2019-05-05T15:43:33.505Z,56.50
2019-05-05T15:46:01.648Z,53.70
2019-05-05T15:48:29.683Z,55.00
2019-05-05T15:50:57.727Z,57.50
2019-05-05T15:53:25.775Z,57.70
2019-05-05T15:55:54.041Z,57.20
2019-05-05T15:58:24.012Z,58.60
2019-05-05T16:00:53.829Z,59.60
2019-05-05T16:03:21.893Z,60.70
2019-05-05T16:05:50.982Z,60.50
2019-05-05T16:08:18.997Z,62.30
2019-05-05T16:10:47.051Z,64.20
2019-05-05T16:13:15.035Z,63.00
2019-05-05T16:16:02.004Z,63.70
2019-05-05T16:18:48.668Z,64.50
2019-05-05T16:21:34.681Z,64.50
2019-05-05T16:24:08.419Z,62.30
2019-05-05T16:26:36.464Z,60.00
2019-05-05T16:29:08.815Z,62.50
2019-05-05T16:31:40.823Z,64.70
2019-05-05T16:34:10.878Z,67.20
2019-05-05T16:36:39.053Z,67.40
2019-05-05T16:39:07.247Z,65.70
2019-05-05T16:41:35.461Z,66.90
2019-05-05T16:44:03.443Z,65.60
2019-05-05T16:46:31.639Z,68.20
2019-05-05T16:48:59.762Z,67.90
2019-05-05T16:51:33.375Z,69.40
2019-05-05T16:54:04.678Z,69.90
2019-05-05T16:56:33.660Z,70.80
2019-05-05T16:59:01.893Z,70.70
2019-05-05T17:01:29.815Z,73.70
2019-05-05T17:04:08.408Z,74.20
2019-05-05T17:06:27.751Z,74.40
2019-05-05T17:08:55.910Z,73.50
2019-05-05T17:11:26.176Z,73.50
2019-05-05T17:14:18.876Z,76.30
2019-05-05T17:17:06.021Z,77.60
2019-05-05T17:19:47.888Z,79.80
2019-05-05T17:22:25.366Z,81.40
2019-05-05T17:24:53.602Z,81.70
2019-05-05T17:27:23.542Z,81.70
2019-05-05T17:29:53.743Z,82.10
2019-05-05T17:32:24.905Z,81.20
2019-05-05T17:34:51.832Z,80.90
2019-05-05T17:37:20.042Z,81.30
2019-05-05T17:39:59.653Z,83.70
2019-05-05T17:42:46.674Z,82.90
2019-05-05T17:45:34.392Z,85.50
2019-05-05T17:48:14.069Z,87.80
2019-05-05T17:50:56.084Z,86.80
2019-05-05T17:53:34.411Z,89.00
2019-05-05T17:56:03.970Z,89.70
2019-05-05T17:58:33.914Z,89.90
2019-05-05T18:01:03.671Z,90.50
2019-05-05T18:03:31.191Z,90.80
2019-05-05T18:06:24.434Z,91.20
2019-05-05T18:08:56.196Z,91.90
2019-05-05T18:11:35.042Z,92.00
2019-05-05T18:14:06.588Z,92.20
2019-05-05T18:16:34.558Z,93.10
2019-05-05T18:19:04.348Z,93.00
2019-05-05T18:21:32.904Z,93.70
2019-05-05T18:24:02.025Z,94.20
2019-05-05T18:26:30.004Z,94.80
2019-05-05T18:28:58.029Z,95.30
2019-05-05T18:31:26.042Z,95.60
2019-05-05T18:33:54.443Z,96.20
2019-05-05T18:36:22.672Z,97.00
2019-05-05T18:38:50.722Z,97.50
2019-05-05T18:41:28.608Z,97.40
2019-05-05T18:44:09.159Z,98.00
2019-05-05T18:46:37.254Z,99.10
2019-05-05T18:49:05.266Z,99.20
2019-05-05T18:51:34.754Z,99.90
2019-05-05T18:54:04.216Z,99.90
2019-05-05T18:56:34.588Z,99.90
2019-05-05T18:59:04.627Z,99.90
2019-05-05T19:01:44.830Z,99.90
2019-05-05T19:04:28.072Z,99.90
2019-05-05T19:07:06.941Z,99.90
2019-05-05T19:09:35.967Z,99.90
2019-05-05T19:12:06.739Z,99.90
2019-05-05T19:14:35.049Z,99.90
2019-05-05T19:17:04.594Z,99.90
2019-05-05T19:19:34.495Z,99.90
2019-05-05T19:22:07.103Z,99.90
2019-05-05T19:24:35.467Z,99.90
2019-05-05T19:27:03.768Z,99.90
2019-05-05T19:29:31.940Z,99.90
2019-05-05T19:31:59.973Z,99.90
2019-05-05T19:34:28.069Z,99.90
2019-05-05T19:36:56.217Z,99.90
2019-05-05T19:39:24.395Z,99.90
2019-05-05T19:41:54.365Z,99.90
2019-05-05T19:44:25.852Z,99.90
2019-05-05T19:47:10.947Z,99.90
2019-05-05T19:49:40.545Z,99.90
2019-05-05T19:52:08.410Z,99.90
2019-05-05T19:54:36.513Z,99.90
2019-05-05T19:57:04.570Z,99.90
2019-05-05T19:59:35.648Z,99.90
2019-05-05T20:02:05.759Z,99.90
2019-05-05T20:04:33.844Z,99.90
2019-05-05T20:07:01.845Z,99.90
2019-05-05T20:09:29.909Z,99.90
2019-05-05T20:11:57.912Z,99.90
2019-05-05T20:14:25.947Z,99.90
2019-05-05T20:17:08.586Z,99.90
2019-05-05T20:19:40.830Z,99.90
2019-05-05T20:22:08.733Z,99.90
2019-05-05T20:24:36.854Z,99.90
2019-05-05T20:27:04.801Z,99.90
2019-05-05T20:29:36.758Z,99.90
2019-05-05T20:32:04.339Z,99.90
2019-05-05T20:34:40.406Z,99.90
2019-05-05T20:37:14.141Z,99.90
2019-05-05T20:39:43.944Z,99.90
2019-05-05T20:42:12.019Z,99.90
2019-05-05T20:44:40.025Z,99.90
2019-05-05T20:47:07.900Z,99.90
2019-05-05T20:49:35.828Z,99.90
2019-05-05T20:52:03.971Z,99.90
2019-05-05T20:54:31.939Z,99.90
2019-05-05T20:56:59.804Z,99.90
2019-05-05T20:59:30.889Z,99.90
2019-05-05T21:01:57.380Z,99.90
2019-05-05T21:04:25.255Z,99.90
2019-05-05T21:06:53.535Z,99.90
2019-05-05T21:09:21.529Z,99.90
2019-05-05T21:11:49.454Z,99.90
2019-05-05T21:14:30.893Z,99.90
2019-05-05T21:16:46.927Z,99.90
2019-05-05T21:19:14.892Z,99.90
2019-05-05T21:21:45.433Z,99.90
2019-05-05T21:24:14.103Z,99.90
2019-05-05T21:26:52.103Z,99.90
2019-05-05T21:29:20.085Z,99.90
2019-05-05T21:31:48.218Z,99.90
2019-05-05T21:34:16.165Z,99.90
2019-05-05T21:36:44.775Z,99.90
2019-05-05T21:39:14.891Z,99.90
2019-05-05T21:41:43.797Z,99.90
2019-05-05T21:44:14.446Z,99.90
2019-05-05T21:46:43.685Z,99.90
2019-05-05T21:49:13.454Z,99.90
2019-05-05T21:52:15.194Z,99.90
2019-05-05T21:54:58.936Z,99.90
2019-05-05T21:57:47.390Z,99.90
2019-05-05T22:00:34.745Z,99.90
2019-05-05T22:03:04.535Z,99.90
2019-05-05T22:05:33.538Z,99.90
2019-05-05T22:08:01.655Z,99.90
2019-05-05T22:10:29.561Z,99.90
2019-05-05T22:12:57.605Z,99.90
2019-05-05T22:15:25.573Z,99.90
2019-05-05T22:17:54.322Z,99.90
2019-05-05T22:20:28.968Z,99.90
2019-05-05T22:22:56.530Z,99.90
2019-05-05T22:25:24.511Z,99.90
2019-05-05T22:27:54.430Z,99.90
2019-05-05T22:30:23.698Z,99.90
2019-05-05T22:32:51.677Z,99.90
2019-05-05T22:35:19.715Z,99.90
2019-05-05T22:37:47.661Z,99.90
2019-05-05T22:40:16.044Z,99.90
2019-05-05T22:42:44.037Z,99.90
2019-05-05T22:45:14.106Z,99.90
2019-05-05T22:47:41.659Z,99.90
2019-05-05T22:50:13.875Z,99.90
2019-05-05T22:52:41.928Z,99.90
2019-05-05T22:55:09.820Z,99.90
2019-05-05T22:57:37.772Z,99.90
2019-05-05T23:00:06.750Z,99.90
2019-05-05T23:02:37.227Z,99.90
2019-05-05T23:05:26.906Z,99.90
2019-05-05T23:07:54.907Z,99.90
2019-05-05T23:10:23.499Z,99.90
2019-05-05T23:12:51.666Z,99.90
2019-05-05T23:15:19.624Z,99.90
2019-05-05T23:17:54.346Z,99.90
2019-05-05T23:20:34.013Z,99.90
2019-05-05T23:23:09.527Z,99.90
2019-05-05T23:25:40.792Z,99.90
2019-05-05T23:28:08.650Z,99.90
2019-05-05T23:30:41.171Z,99.90
2019-05-05T23:33:06.309Z,99.90
2019-05-05T23:35:34.471Z,99.90
2019-05-05T23:38:03.528Z,99.90
2019-05-05T23:40:33.848Z,99.90
2019-05-05T23:43:01.367Z,99.90
2019-05-05T23:45:29.267Z,99.90
2019-05-05T23:47:57.120Z,99.90
2019-05-05T23:50:25.002Z,99.90
2019-05-05T23:52:54.571Z,99.90
2019-05-05T23:55:23.969Z,99.90
2019-05-05T23:57:54.300Z,99.90
